createdAt,value
2023-02-02T00:01:31.440Z,69.15
2023-02-02T00:03:59.495Z,69.35
2023-02-02T00:06:28.699Z,67.72
2023-02-02T00:08:58.534Z,71.13
2023-02-02T00:11:26.734Z,69.20
2023-02-02T00:13:54.744Z,67.90
2023-02-02T00:16:31.455Z,74.35
2023-02-02T00:19:10.974Z,66.97
2023-02-02T00:21:38.746Z,70.43
2023-02-02T00:24:07.957Z,66.82
2023-02-02T00:26:36.512Z,71.53
2023-02-02T00:29:04.825Z,68.25
2023-02-02T00:31:32.419Z,68.35
2023-02-02T00:34:00.086Z,59.88
2023-02-02T00:36:28.856Z,66.93
2023-02-02T00:38:56.295Z,61.00
2023-02-02T00:41:24.097Z,62.47
2023-02-02T00:44:11.529Z,62.60
2023-02-02T00:46:40.366Z,54.95
2023-02-02T00:49:08.818Z,57.65
2023-02-02T00:51:37.273Z,58.03
2023-02-02T00:54:05.375Z,60.38
2023-02-02T00:56:32.995Z,57.75
2023-02-02T00:59:00.613Z,58.45
2023-02-02T01:01:28.900Z,54.25
2023-02-02T01:03:56.443Z,56.05
2023-02-02T01:06:24.022Z,55.03
2023-02-02T01:08:51.631Z,56.15
2023-02-02T01:11:19.206Z,52.40
2023-02-02T01:13:46.804Z,52.53
2023-02-02T01:16:14.534Z,51.25
2023-02-02T01:18:42.154Z,52.00
2023-02-02T01:21:11.934Z,52.22
2023-02-02T01:23:39.751Z,51.78
2023-02-02T01:26:10.673Z,52.15
2023-02-02T01:28:38.626Z,51.08
2023-02-02T01:31:14.955Z,52.92
2023-02-02T01:33:43.895Z,51.65
2023-02-02T01:36:14.051Z,53.95
2023-02-02T01:38:42.519Z,51.90
2023-02-02T01:41:23.374Z,50.80
2023-02-02T01:43:56.666Z,51.90
2023-02-02T01:46:32.845Z,52.08
2023-02-02T01:49:06.270Z,53.00
2023-02-02T01:51:54.762Z,51.55
2023-02-02T01:54:31.601Z,49.53
2023-02-02T01:57:21.243Z,48.42
2023-02-02T01:59:52.095Z,50.72
2023-02-02T02:02:20.130Z,49.38
2023-02-02T02:04:50.496Z,50.33
2023-02-02T02:07:19.227Z,50.93
2023-02-02T02:09:47.705Z,47.40
2023-02-02T02:12:16.576Z,47.92
2023-02-02T02:15:05.820Z,46.70
2023-02-02T02:17:54.757Z,45.22
2023-02-02T02:21:06.284Z,47.17
2023-02-02T02:24:16.403Z,48.63
2023-02-02T02:27:01.305Z,48.17
2023-02-02T02:30:04.015Z,48.92
2023-02-02T02:32:52.713Z,48.03
2023-02-02T02:35:40.373Z,48.08
2023-02-02T02:38:30.655Z,46.97
2023-02-02T02:41:03.631Z,47.40
2023-02-02T02:43:38.011Z,48.83
2023-02-02T02:46:06.380Z,47.15
2023-02-02T02:48:33.911Z,47.60
2023-02-02T02:51:29.608Z,45.08
2023-02-02T02:53:57.187Z,48.63
2023-02-02T02:57:02.603Z,48.65
2023-02-02T02:59:48.152Z,49.45
2023-02-02T03:02:42.355Z,47.17
2023-02-02T03:05:36.281Z,48.88
2023-02-02T03:08:12.372Z,48.53
2023-02-02T03:10:43.433Z,47.30
2023-02-02T03:13:12.061Z,48.30
2023-02-02T03:15:44.844Z,48.40
2023-02-02T03:18:15.397Z,50.35
2023-02-02T03:20:45.045Z,49.35
2023-02-02T03:23:13.150Z,50.28
2023-02-02T03:25:40.869Z,50.00
2023-02-02T03:28:08.912Z,52.22
2023-02-02T03:30:38.404Z,55.30
2023-02-02T03:33:06.697Z,57.03
2023-02-02T03:35:35.763Z,53.15
2023-02-02T03:38:03.968Z,49.53
2023-02-02T03:40:31.575Z,46.38
2023-02-02T03:42:59.088Z,47.25
2023-02-02T03:45:30.179Z,48.72
2023-02-02T03:47:57.894Z,48.13
2023-02-02T03:50:25.490Z,50.22
2023-02-02T03:52:55.237Z,54.85
2023-02-02T03:55:23.445Z,53.10
2023-02-02T03:57:51.121Z,56.95
2023-02-02T04:00:18.964Z,57.67
2023-02-02T04:02:46.492Z,58.20
2023-02-02T04:05:13.997Z,60.53
2023-02-02T04:07:41.575Z,58.45
2023-02-02T04:10:09.776Z,56.75
2023-02-02T04:12:37.213Z,58.30
2023-02-02T04:15:05.135Z,58.67
2023-02-02T04:17:32.624Z,61.22
2023-02-02T04:20:00.026Z,60.75
2023-02-02T04:22:27.596Z,61.28
2023-02-02T04:24:55.275Z,57.55
2023-02-02T04:27:22.850Z,58.03
2023-02-02T04:29:50.569Z,58.45
2023-02-02T04:32:18.912Z,59.85
2023-02-02T04:34:46.435Z,57.08
2023-02-02T04:37:13.846Z,57.97
2023-02-02T04:39:41.253Z,50.60
2023-02-02T04:42:08.772Z,53.85
2023-02-02T04:44:36.207Z,55.22
2023-02-02T04:47:03.641Z,57.45
2023-02-02T04:49:31.082Z,60.13
2023-02-02T04:51:58.515Z,62.35
2023-02-02T04:54:26.040Z,61.35
2023-02-02T04:56:53.517Z,60.63
2023-02-02T04:59:20.983Z,61.60
2023-02-02T05:01:48.493Z,60.95
2023-02-02T05:04:15.929Z,62.30
2023-02-02T05:06:43.360Z,63.17
2023-02-02T05:09:11.182Z,59.35
2023-02-02T05:11:40.613Z,62.13
2023-02-02T05:14:08.862Z,61.92
2023-02-02T05:16:36.512Z,58.00
2023-02-02T05:19:04.060Z,55.67
2023-02-02T05:21:31.644Z,58.28
2023-02-02T05:23:59.796Z,58.60
2023-02-02T05:26:27.700Z,59.78
2023-02-02T05:28:56.091Z,58.10
2023-02-02T05:31:23.727Z,57.10
2023-02-02T05:33:51.184Z,62.35
2023-02-02T05:36:19.036Z,62.15
2023-02-02T05:38:46.524Z,62.72
2023-02-02T05:41:14.160Z,60.95
2023-02-02T05:43:41.709Z,59.45
2023-02-02T05:46:09.308Z,59.58
2023-02-02T05:48:36.808Z,54.33
2023-02-02T05:51:04.395Z,56.20
2023-02-02T05:53:32.684Z,49.35
2023-02-02T05:56:00.162Z,46.58
2023-02-02T05:58:28.206Z,44.65
2023-02-02T06:00:56.810Z,34.80
2023-02-02T06:03:24.643Z,32.97
2023-02-02T06:05:52.175Z,31.10
2023-02-02T06:08:19.726Z,30.30
2023-02-02T06:10:47.260Z,29.42
2023-02-02T06:13:14.753Z,28.83
2023-02-02T06:15:43.349Z,27.60
2023-02-02T06:18:10.996Z,29.05
2023-02-02T06:20:38.550Z,32.38
2023-02-02T06:23:06.218Z,31.63
2023-02-02T06:25:34.547Z,30.08
2023-02-02T06:28:02.125Z,31.92
2023-02-02T06:30:29.596Z,32.90
2023-02-02T06:32:59.454Z,32.40
2023-02-02T06:35:27.480Z,36.28
2023-02-02T06:37:55.051Z,37.72
2023-02-02T06:40:22.560Z,37.08
2023-02-02T06:42:57.637Z,37.95
2023-02-02T06:45:26.320Z,40.15
2023-02-02T06:47:54.557Z,39.22
2023-02-02T06:50:22.031Z,40.22
2023-02-02T06:52:53.393Z,40.53
2023-02-02T06:55:20.865Z,38.42
2023-02-02T06:57:48.289Z,39.70
2023-02-02T07:00:16.007Z,37.35
2023-02-02T07:02:46.553Z,41.83
2023-02-02T07:05:14.107Z,41.60
2023-02-02T07:07:41.552Z,35.45
2023-02-02T07:10:09.352Z,38.75
2023-02-02T07:12:56.749Z,40.15
2023-02-02T07:15:24.467Z,40.15
2023-02-02T07:17:54.186Z,37.88
2023-02-02T07:20:21.652Z,45.33
2023-02-02T07:22:49.344Z,51.88
2023-02-02T07:25:16.911Z,53.70
2023-02-02T07:27:44.349Z,55.00
2023-02-02T07:30:12.361Z,56.78
2023-02-02T07:32:39.957Z,57.45
2023-02-02T07:35:07.475Z,59.55
2023-02-02T07:37:34.875Z,61.83
2023-02-02T07:40:02.404Z,60.03
2023-02-02T07:42:29.857Z,61.47
2023-02-02T07:44:57.391Z,57.63
2023-02-02T07:47:25.994Z,59.25
2023-02-02T07:49:53.480Z,60.75
2023-02-02T07:52:20.911Z,58.22
2023-02-02T07:54:48.382Z,58.05
2023-02-02T07:57:17.702Z,59.10
2023-02-02T07:59:45.191Z,58.83
2023-02-02T08:02:12.768Z,57.70
2023-02-02T08:04:40.676Z,58.08
2023-02-02T08:07:08.434Z,56.33
2023-02-02T08:09:36.065Z,57.83
2023-02-02T08:12:03.736Z,55.53
2023-02-02T08:14:32.399Z,58.38
2023-02-02T08:16:59.847Z,56.30
2023-02-02T08:19:27.316Z,61.30
2023-02-02T08:21:54.823Z,65.30
2023-02-02T08:24:22.382Z,64.57
2023-02-02T08:26:49.963Z,67.57
2023-02-02T08:29:17.542Z,71.10
2023-02-02T08:31:45.464Z,78.47
2023-02-02T08:34:14.164Z,80.60
2023-02-02T08:36:42.193Z,81.53
2023-02-02T08:39:13.034Z,82.53
2023-02-02T08:41:40.838Z,84.30
2023-02-02T08:44:11.629Z,82.60
2023-02-02T08:46:39.553Z,81.93
2023-02-02T08:49:07.363Z,84.78
2023-02-02T08:51:34.841Z,86.85
2023-02-02T08:54:02.414Z,86.07
2023-02-02T08:56:29.815Z,83.72
2023-02-02T08:58:58.823Z,86.10
2023-02-02T09:01:31.928Z,88.18
2023-02-02T09:04:02.350Z,85.07
2023-02-02T09:06:33.629Z,85.82
2023-02-02T09:09:01.684Z,85.78
2023-02-02T09:11:29.426Z,86.53
2023-02-02T09:13:58.879Z,86.15
2023-02-02T09:16:27.630Z,83.70
2023-02-02T09:18:56.642Z,81.03
2023-02-02T09:21:24.342Z,82.07
2023-02-02T09:23:56.733Z,83.45
2023-02-02T09:26:29.301Z,82.22
2023-02-02T09:29:07.592Z,81.15
2023-02-02T09:31:37.488Z,80.60
2023-02-02T09:34:10.429Z,77.22
2023-02-02T09:36:39.035Z,72.07
2023-02-02T09:39:07.358Z,74.60
2023-02-02T09:41:40.892Z,70.90
2023-02-02T09:44:20.253Z,72.55
2023-02-02T09:47:02.908Z,71.47
2023-02-02T09:49:56.702Z,74.63
2023-02-02T09:52:40.728Z,72.55
2023-02-02T09:55:23.339Z,70.00
2023-02-02T09:58:14.241Z,70.72
2023-02-02T10:01:01.603Z,67.72
2023-02-02T10:03:54.080Z,67.13
2023-02-02T10:09:03.683Z,65.35
2023-02-02T10:11:39.440Z,63.67
2023-02-02T10:14:17.854Z,64.80
2023-02-02T10:16:49.619Z,59.70
2023-02-02T10:19:17.127Z,58.72
2023-02-02T10:22:19.567Z,57.55
2023-02-02T10:24:47.264Z,55.10
2023-02-02T10:27:17.239Z,53.38
2023-02-02T10:29:49.194Z,48.85
2023-02-02T10:35:15.901Z,51.55
2023-02-02T10:38:12.103Z,52.97
2023-02-02T10:40:42.697Z,48.95
2023-02-02T10:43:46.190Z,46.38
2023-02-02T10:46:33.824Z,45.13
2023-02-02T10:49:26.460Z,40.80
2023-02-02T10:52:17.013Z,43.63
2023-02-02T10:54:57.409Z,41.33
2023-02-02T10:58:03.290Z,40.05
2023-02-02T11:00:46.613Z,34.55
2023-02-02T11:03:17.260Z,31.98
2023-02-02T11:06:03.483Z,31.23
2023-02-02T11:08:35.404Z,32.38
2023-02-02T11:11:22.337Z,34.08
2023-02-02T11:14:04.130Z,36.70
2023-02-02T11:16:42.765Z,37.40
2023-02-02T11:19:17.734Z,39.40
2023-02-02T11:21:54.357Z,40.88
2023-02-02T11:24:26.926Z,42.53
2023-02-02T11:26:58.526Z,45.45
2023-02-02T11:29:41.619Z,36.22
2023-02-02T11:32:33.178Z,48.95
2023-02-02T11:35:26.643Z,51.45
2023-02-02T11:37:58.570Z,47.53
2023-02-02T11:40:28.298Z,44.83
2023-02-02T11:42:58.000Z,42.58
2023-02-02T11:45:43.248Z,40.95
2023-02-02T11:48:28.191Z,41.08
2023-02-02T11:50:58.289Z,39.22
2023-02-02T11:53:47.305Z,38.65
2023-02-02T11:56:21.645Z,37.53
2023-02-02T11:58:51.073Z,36.35
2023-02-02T12:01:34.078Z,33.67
2023-02-02T12:04:26.169Z,30.80
2023-02-02T12:06:53.785Z,27.65
2023-02-02T12:09:23.864Z,26.95
2023-02-02T12:12:06.722Z,26.42
2023-02-02T12:14:50.737Z,24.10
2023-02-02T12:17:42.963Z,20.75
2023-02-02T12:20:15.923Z,19.00
2023-02-02T12:22:52.311Z,20.20
2023-02-02T12:25:54.202Z,19.77
2023-02-02T12:28:57.615Z,18.88
2023-02-02T12:31:31.216Z,18.27
2023-02-02T12:34:09.985Z,20.35
2023-02-02T12:37:11.081Z,18.15
2023-02-02T12:39:51.332Z,17.63
2023-02-02T12:42:39.503Z,14.93
2023-02-02T12:45:10.442Z,15.68
2023-02-02T12:48:01.307Z,15.00
2023-02-02T12:50:43.919Z,12.60
2023-02-02T12:53:17.644Z,13.85
2023-02-02T12:56:18.018Z,10.23
2023-02-02T12:58:51.543Z,7.43
2023-02-02T13:01:43.576Z,9.18
2023-02-02T13:04:41.200Z,7.80
2023-02-02T13:07:40.130Z,7.93
2023-02-02T13:10:33.910Z,7.65
2023-02-02T13:13:18.062Z,7.45
2023-02-02T13:15:52.856Z,6.85
2023-02-02T13:18:26.081Z,6.65
2023-02-02T13:21:04.370Z,7.45
2023-02-02T13:23:40.553Z,7.82
2023-02-02T13:26:23.258Z,7.95
2023-02-02T13:29:03.041Z,7.25
2023-02-02T13:32:15.519Z,8.38
2023-02-02T13:35:23.165Z,9.07
2023-02-02T13:38:22.997Z,9.05
2023-02-02T13:40:55.381Z,9.18
2023-02-02T13:43:39.688Z,9.00
2023-02-02T13:46:36.263Z,12.05
2023-02-02T13:49:03.786Z,14.07
2023-02-02T13:51:42.439Z,13.93
2023-02-02T13:55:00.770Z,13.88
2023-02-02T13:57:40.606Z,14.77
2023-02-02T14:00:25.256Z,13.15
2023-02-02T14:02:59.650Z,14.60
2023-02-02T14:05:31.171Z,14.82
2023-02-02T14:08:06.768Z,14.65
2023-02-02T14:10:43.351Z,14.80
2023-02-02T14:13:32.432Z,15.38
2023-02-02T14:16:03.678Z,13.38
2023-02-02T14:18:52.341Z,15.95
2023-02-02T14:21:31.956Z,15.88
2023-02-02T14:24:05.677Z,15.32
2023-02-02T14:26:50.735Z,16.38
2023-02-02T14:29:33.044Z,16.25
2023-02-02T14:32:20.363Z,14.27
2023-02-02T14:34:49.204Z,15.15
2023-02-02T14:37:29.040Z,14.88
2023-02-02T14:40:14.497Z,15.88
2023-02-02T14:43:15.798Z,16.73
2023-02-02T14:45:51.221Z,17.23
2023-02-02T14:48:23.804Z,16.30
2023-02-02T14:51:00.106Z,17.13
2023-02-02T14:53:29.007Z,16.67
2023-02-02T14:56:11.830Z,17.60
2023-02-02T14:58:54.101Z,16.83
2023-02-02T15:01:24.240Z,17.55
2023-02-02T15:03:53.164Z,17.45
2023-02-02T15:06:36.667Z,19.02
2023-02-02T15:09:23.563Z,17.85
2023-02-02T15:12:02.848Z,18.02
2023-02-02T15:14:39.419Z,19.33
2023-02-02T15:17:30.679Z,18.27
2023-02-02T15:20:01.047Z,18.23
2023-02-02T15:23:22.446Z,18.33
2023-02-02T15:26:20.697Z,18.90
2023-02-02T15:29:05.574Z,17.92
2023-02-02T15:31:37.703Z,18.42
2023-02-02T15:34:20.838Z,17.55
2023-02-02T15:36:52.382Z,16.40
2023-02-02T15:39:42.687Z,13.38
2023-02-02T15:42:52.914Z,11.43
2023-02-02T15:45:29.675Z,11.20
2023-02-02T15:47:59.460Z,10.07
2023-02-02T15:50:27.696Z,9.00
2023-02-02T15:52:55.976Z,8.98
2023-02-02T15:55:30.180Z,8.50
2023-02-02T15:57:58.170Z,8.13
2023-02-02T16:00:32.676Z,7.63
2023-02-02T16:03:03.081Z,8.65
2023-02-02T16:05:36.769Z,7.88
2023-02-02T16:08:13.283Z,8.30
2023-02-02T16:10:40.852Z,12.73
2023-02-02T16:13:17.456Z,8.63
2023-02-02T16:16:17.708Z,9.07
2023-02-02T16:18:45.388Z,8.25
2023-02-02T16:21:20.247Z,8.75
2023-02-02T16:23:48.781Z,8.43
2023-02-02T16:26:19.421Z,8.55
2023-02-02T16:28:47.073Z,7.55
2023-02-02T16:31:15.606Z,8.13
2023-02-02T16:33:44.973Z,8.98
2023-02-02T16:36:25.876Z,7.78
2023-02-02T16:38:54.862Z,8.35
2023-02-02T16:41:40.332Z,8.93
2023-02-02T16:44:31.461Z,9.02
2023-02-02T16:46:59.943Z,8.50
2023-02-02T16:49:28.613Z,9.35
2023-02-02T16:52:09.916Z,10.90
2023-02-02T16:54:38.511Z,10.18
2023-02-02T16:57:06.077Z,10.68
2023-02-02T16:59:36.744Z,9.27
2023-02-02T17:02:18.807Z,9.85
2023-02-02T17:04:49.695Z,10.20
2023-02-02T17:07:17.693Z,10.50
2023-02-02T17:09:48.340Z,11.10
2023-02-02T17:12:30.451Z,10.43
2023-02-02T17:15:06.014Z,9.27
2023-02-02T17:17:33.649Z,10.23
2023-02-02T17:20:01.331Z,10.45
2023-02-02T17:22:30.077Z,13.02
2023-02-02T17:24:58.736Z,12.07
2023-02-02T17:27:32.096Z,12.05
2023-02-02T17:30:02.752Z,12.52
2023-02-02T17:32:30.333Z,14.90
2023-02-02T17:34:57.932Z,14.30
2023-02-02T17:37:25.871Z,10.35
2023-02-02T17:39:54.096Z,10.27
2023-02-02T17:42:31.151Z,10.63
2023-02-02T17:44:58.629Z,10.10
2023-02-02T17:47:26.007Z,10.57
2023-02-02T17:49:53.570Z,11.00
2023-02-02T17:52:21.067Z,12.82
2023-02-02T17:54:48.493Z,16.85
2023-02-02T17:57:15.936Z,20.15
2023-02-02T17:59:43.405Z,18.40
2023-02-02T18:02:14.909Z,20.40
2023-02-02T18:04:45.452Z,22.45
2023-02-02T18:07:13.146Z,20.98
2023-02-02T18:09:40.676Z,18.73
2023-02-02T18:12:08.257Z,18.17
2023-02-02T18:14:35.954Z,19.15
2023-02-02T18:17:03.511Z,20.13
2023-02-02T18:19:31.423Z,19.38
2023-02-02T18:21:58.912Z,17.88
2023-02-02T18:24:26.432Z,22.85
2023-02-02T18:26:53.916Z,22.20
2023-02-02T18:29:21.539Z,25.00
2023-02-02T18:31:49.258Z,20.48
2023-02-02T18:34:16.840Z,24.10
2023-02-02T18:36:44.468Z,24.38
2023-02-02T18:39:11.862Z,23.48
2023-02-02T18:41:39.306Z,24.35
2023-02-02T18:44:07.064Z,25.00
2023-02-02T18:46:34.739Z,21.42
2023-02-02T18:49:02.431Z,22.73
2023-02-02T18:51:31.581Z,20.30
2023-02-02T18:54:01.872Z,19.98
2023-02-02T18:56:30.285Z,24.80
2023-02-02T18:58:58.567Z,29.77
2023-02-02T19:01:26.668Z,30.42
2023-02-02T19:03:57.275Z,27.10
2023-02-02T19:06:44.769Z,28.33
2023-02-02T19:09:17.367Z,27.63
2023-02-02T19:11:47.801Z,27.02
2023-02-02T19:14:15.322Z,29.40
2023-02-02T19:16:44.918Z,30.13
2023-02-02T19:19:26.431Z,30.50
2023-02-02T19:21:57.425Z,28.40
2023-02-02T19:24:34.646Z,29.85
2023-02-02T19:27:02.184Z,26.63
2023-02-02T19:29:35.289Z,27.45
2023-02-02T19:32:12.375Z,26.92
2023-02-02T19:34:39.790Z,28.27
2023-02-02T19:37:38.862Z,26.60
2023-02-02T19:40:09.039Z,27.90
2023-02-02T19:42:41.025Z,27.70
2023-02-02T19:45:31.922Z,25.80
2023-02-02T19:48:02.878Z,26.10
2023-02-02T19:50:39.141Z,25.13
2023-02-02T19:53:16.127Z,26.38
2023-02-02T19:55:44.399Z,31.77
2023-02-02T19:58:21.279Z,37.00
2023-02-02T20:00:50.958Z,33.63
2023-02-02T20:03:24.577Z,32.58
2023-02-02T20:05:53.580Z,33.88
2023-02-02T20:08:39.931Z,34.05
2023-02-02T20:11:32.375Z,48.10
2023-02-02T20:14:01.043Z,49.38
2023-02-02T20:16:38.015Z,56.20
2023-02-02T20:19:05.580Z,59.03
2023-02-02T20:21:40.666Z,53.83
2023-02-02T20:24:18.944Z,55.70
2023-02-02T20:26:46.976Z,64.60
2023-02-02T20:29:47.742Z,67.50
2023-02-02T20:32:26.420Z,71.38
2023-02-02T20:34:57.687Z,73.47
2023-02-02T20:37:31.800Z,77.50
2023-02-02T20:40:20.677Z,77.80
2023-02-02T20:42:49.260Z,77.78
2023-02-02T20:45:18.399Z,81.00
2023-02-02T20:47:46.262Z,79.40
2023-02-02T20:50:16.410Z,77.80
2023-02-02T20:52:44.088Z,75.45
2023-02-02T20:55:12.134Z,72.70
2023-02-02T20:57:40.351Z,79.10
2023-02-02T21:00:13.196Z,69.43
2023-02-02T21:02:40.829Z,73.95
2023-02-02T21:05:08.623Z,70.90
2023-02-02T21:07:36.235Z,73.68
2023-02-02T21:10:05.110Z,68.88
2023-02-02T21:12:32.645Z,78.30
2023-02-02T21:15:00.582Z,74.68
2023-02-02T21:17:28.038Z,76.90
2023-02-02T21:19:55.580Z,69.68
2023-02-02T21:22:23.075Z,68.30
2023-02-02T21:24:50.506Z,68.20
2023-02-02T21:27:18.061Z,68.95
2023-02-02T21:29:45.830Z,67.05
2023-02-02T21:32:13.396Z,70.82
2023-02-02T21:34:40.921Z,77.70
2023-02-02T21:37:15.735Z,74.22
2023-02-02T21:39:48.753Z,81.55
2023-02-02T21:42:19.453Z,80.13
2023-02-02T21:44:56.441Z,74.45
2023-02-02T21:47:36.438Z,68.65
2023-02-02T21:50:24.656Z,70.30
2023-02-02T21:53:10.735Z,66.75
2023-02-02T21:55:39.415Z,69.63
2023-02-02T21:58:35.150Z,72.10
2023-02-02T22:01:36.850Z,68.57
2023-02-02T22:04:11.965Z,64.25
2023-02-02T22:06:43.930Z,65.75
2023-02-02T22:09:11.281Z,69.32
2023-02-02T22:11:49.516Z,72.43
2023-02-02T22:14:47.174Z,77.22
2023-02-02T22:17:37.510Z,76.15
2023-02-02T22:20:17.670Z,75.82
2023-02-02T22:22:47.552Z,81.32
2023-02-02T22:25:18.179Z,89.18
2023-02-02T22:27:50.800Z,88.00
2023-02-02T22:30:21.894Z,78.85
2023-02-02T22:32:49.416Z,89.27
2023-02-02T22:35:17.016Z,88.30
2023-02-02T22:37:44.493Z,81.15
2023-02-02T22:40:12.412Z,78.18
2023-02-02T22:42:39.952Z,89.32
2023-02-02T22:45:08.012Z,89.65
2023-02-02T22:47:35.667Z,87.05
2023-02-02T22:50:03.708Z,80.40
2023-02-02T22:52:31.201Z,70.75
2023-02-02T22:54:58.637Z,72.55
2023-02-02T22:57:26.167Z,85.82
2023-02-02T22:59:53.698Z,80.88
2023-02-02T23:02:21.151Z,82.47
2023-02-02T23:04:48.648Z,84.00
2023-02-02T23:07:16.096Z,78.93
2023-02-02T23:09:43.583Z,74.97
2023-02-02T23:12:11.148Z,75.03
2023-02-02T23:14:38.674Z,77.13
2023-02-02T23:17:08.206Z,90.78
2023-02-02T23:19:35.773Z,89.18
2023-02-02T23:22:03.346Z,86.93
2023-02-02T23:24:30.976Z,78.65
2023-02-02T23:26:58.670Z,83.40
2023-02-02T23:29:26.526Z,81.85
2023-02-02T23:31:54.056Z,79.60
2023-02-02T23:34:21.580Z,80.40
2023-02-02T23:36:49.068Z,88.85
2023-02-02T23:39:16.453Z,80.13
2023-02-02T23:41:43.955Z,79.78
2023-02-02T23:44:11.634Z,78.85
2023-02-02T23:46:39.923Z,82.40
2023-02-02T23:49:07.555Z,79.65
2023-02-02T23:51:35.245Z,81.30
2023-02-02T23:54:03.020Z,84.00
2023-02-02T23:56:30.645Z,93.13
2023-02-02T23:58:58.122Z,94.43
